Time;durP1;ratioP1;P1;durP2;ratioP2;P2;SDS_P1;SDS_P2;PMS_P1;PMS_P2;Temp;Humidity;BMP_temperature;BMP_pressure;BME280_temperature;BME280_humidity;BME280_pressure;Samples;Min_cycle;Max_cycle;Signal;HPM_P1;HPM_P2
2024/02/21 00:02:16;;;;;;;;;;;;;;;;;;4929413;28;89395;-85
2024/02/21 00:04:43;;;;;;;;;;;;;;;;;;4929653;28;89710;-86
2024/02/21 00:07:08;;;;;;;;;;;;;;;;;;4944734;28;91384;-88
2024/02/21 00:09:34;;;;;;;;;;;;;;;;;;4945213;28;90357;-87
2024/02/21 00:12:01;;;;;;;;;;;;;;;;;;4929214;28;93339;-84
2024/02/21 00:14:26;;;;;;;;;;;;;;;;;;4947387;28;90900;-83
2024/02/21 00:16:51;;;;;;;;;;;;;;;;;;4929128;28;92636;-87
2024/02/21 00:19:16;;;;;;;;;;;;;;;;;;4945356;28;92196;-87
2024/02/21 00:21:41;;;;;;;;;;;;;;;;;;4929643;28;88969;-84
2024/02/21 00:24:07;;;;;;;;;;;;;;;;;;4929584;28;89580;-85
2024/02/21 00:26:32;;;;;;;;;;;;;;;;;;4929381;28;89141;-86
2024/02/21 00:28:57;;;;;;;;;;;;;;;;;;4928502;28;90293;-85
2024/02/21 00:31:22;;;;;;;;;;;;;;;;;;4932105;28;89793;-81
2024/02/21 00:33:48;;;;;;;;;;;;;;;;;;4952416;28;89601;-86
2024/02/21 00:36:14;;;;;;;;;;;;;;;;;;4948368;28;89655;-89
2024/02/21 00:38:40;;;;;;;;;;;;;;;;;;4930501;28;89135;-86
2024/02/21 00:41:05;;;;;;;;;;;;;;;;;;4928361;28;90237;-85
2024/02/21 00:43:30;;;;;;;;;;;;;;;;;;4933417;28;89336;-85
2024/02/21 00:45:56;;;;;;;;;;;;;;;;;;4948380;28;92699;-86
2024/02/21 00:48:21;;;;;;;;;;;;;;;;;;4949842;28;89395;-84
2024/02/21 00:50:46;;;;;;;;;;;;;;;;;;4949266;28;90103;-82
2024/02/21 00:53:12;;;;;;;;;;;;;;;;;;4948300;28;92032;-85
2024/02/21 00:55:37;;;;;;;;;;;;;;;;;;4951198;28;90515;-85
2024/02/21 00:58:02;;;;;;;;;;;;;;;;;;4948648;28;89109;-85
2024/02/21 01:00:27;;;;;;;;;;;;;;;;;;4947652;28;89477;-88
2024/02/21 01:02:53;;;;;;;;;;;;;;;;;;4948348;28;90034;-84
2024/02/21 01:05:19;;;;;;;;;;;;;;;;;;4947211;28;91861;-87
2024/02/21 01:07:44;;;;;;;;;;;;;;;;;;4948940;28;89632;-85
2024/02/21 01:10:09;;;;;;;;;;;;;;;;;;4949176;28;90358;-86
2024/02/21 01:12:34;;;;;;;;;;;;;;;;;;4949143;28;89718;-84
2024/02/21 01:15:00;;;;;;;;;;;;;;;;;;4949266;28;89071;-87
2024/02/21 01:17:25;;;;;;;;;;;;;;;;;;4952023;28;89631;-84
2024/02/21 01:19:50;;;;;;;;;;;;;;;;;;4949037;28;89746;-86
2024/02/21 01:22:16;;;;;;;;;;;;;;;;;;4949244;28;89513;-90
2024/02/21 01:24:41;;;;;;;;;;;;;;;;;;4948931;28;89197;-85
2024/02/21 01:27:06;;;;;;;;;;;;;;;;;;4948805;28;89187;-84
2024/02/21 01:29:34;;;;;;;;;;;;;;;;;;4948434;28;89523;-84
2024/02/21 01:32:00;;;;;;;;;;;;;;;;;;4948221;28;89283;-89
2024/02/21 01:34:25;;;;;;;;;;;;;;;;;;4948361;28;89202;-85
2024/02/21 01:36:50;;;;;;;;;;;;;;;;;;4947726;28;92129;-86
2024/02/21 01:39:15;;;;;;;;;;;;;;;;;;4951532;28;89309;-88
2024/02/21 01:41:41;;;;;;;;;;;;;;;;;;4950135;28;89409;-86
2024/02/21 01:44:06;;;;;;;;;;;;;;;;;;4949591;28;89243;-85
2024/02/21 01:46:31;;;;;;;;;;;;;;;;;;4950613;28;90792;-83
2024/02/21 01:48:57;;;;;;;;;;;;;;;;;;4951746;28;90331;-86
2024/02/21 01:51:22;;;;;;;;;;;;;;;;;;4949805;28;92784;-86
2024/02/21 01:53:50;;;;;;;;;;;;;;;;;;4951094;28;89029;-90
2024/02/21 01:56:16;;;;;;;;;;;;;;;;;;4950651;28;92347;-87
2024/02/21 01:58:42;;;;;;;;;;;;;;;;;;4951862;28;89626;-84
2024/02/21 02:01:08;;;;;;;;;;;;;;;;;;4955036;28;89649;-86
2024/02/21 02:03:33;;;;;;;;;;;;;;;;;;4952274;28;89604;-87
2024/02/21 02:05:59;;;;;;;;;;;;;;;;;;4952771;28;89177;-90
2024/02/21 02:08:24;;;;;;;;;;;;;;;;;;4952175;28;90808;-89
2024/02/21 02:10:49;;;;;;;;;;;;;;;;;;4951609;28;89908;-88
2024/02/21 02:13:15;;;;;;;;;;;;;;;;;;4951613;28;89179;-87
2024/02/21 02:15:44;;;;;;;;;;;;;;;;;;4952161;28;89241;-89
2024/02/21 02:18:10;;;;;;;;;;;;;;;;;;4952074;28;89603;-85
2024/02/21 02:20:35;;;;;;;;;;;;;;;;;;4952240;28;89456;-84
2024/02/21 02:23:05;;;;;;;;;;;;;;;;;;4954813;28;89442;-89
2024/02/21 02:25:31;;;;;;;;;;;;;;;;;;4952095;28;89807;-87
2024/02/21 02:27:56;;;;;;;;;;;;;;;;;;4950365;28;93080;-85
2024/02/21 02:30:21;;;;;;;;;;;;;;;;;;4952318;28;89405;-90
2024/02/21 02:32:46;;;;;;;;;;;;;;;;;;4950355;28;89328;-86
2024/02/21 02:35:12;;;;;;;;;;;;;;;;;;4933169;28;89814;-87
2024/02/21 02:37:38;;;;;;;;;;;;;;;;;;4932826;28;89220;-88
2024/02/21 02:40:04;;;;;;;;;;;;;;;;;;4932646;28;89558;-88
2024/02/21 02:42:29;;;;;;;;;;;;;;;;;;4935124;28;91191;-88
2024/02/21 02:44:55;;;;;;;;;;;;;;;;;;4932712;28;90250;-85
2024/02/21 02:47:20;;;;;;;;;;;;;;;;;;4932013;28;92457;-89
2024/02/21 02:49:50;;;;;;;;;;;;;;;;;;4931002;28;90924;-85
2024/02/21 02:52:15;;;;;;;;;;;;;;;;;;4931758;28;89314;-86
2024/02/21 02:54:41;;;;;;;;;;;;;;;;;;4932230;28;89906;-84
2024/02/21 02:57:06;;;;;;;;;;;;;;;;;;4930774;28;89144;-87
2024/02/21 02:59:32;;;;;;;;;;;;;;;;;;4939077;28;89029;-86
2024/02/21 03:01:57;;;;;;;;;;;;;;;;;;4950051;28;89373;-85
2024/02/21 03:04:23;;;;;;;;;;;;;;;;;;4953928;28;89679;-87
2024/02/21 03:06:48;;;;;;;;;;;;;;;;;;4951209;28;89655;-89
2024/02/21 03:09:15;;;;;;;;;;;;;;;;;;4950574;28;92283;-87
2024/02/21 03:11:42;;;;;;;;;;;;;;;;;;4949604;28;90514;-90
2024/02/21 03:14:08;;;;;;;;;;;;;;;;;;4949660;28;92416;-88
2024/02/21 03:16:33;;;;;;;;;;;;;;;;;;4951144;28;89812;-90
2024/02/21 03:18:58;;;;;;;;;;;;;;;;;;4951329;28;89345;-88
2024/02/21 03:21:23;;;;;;;;;;;;;;;;;;4951179;28;89567;-89
2024/02/21 03:23:49;;;;;;;;;;;;;;;;;;4950774;28;89463;-86
2024/02/21 03:26:16;;;;;;;;;;;;;;;;;;4953509;28;89285;-89
2024/02/21 03:28:42;;;;;;;;;;;;;;;;;;4951332;28;89566;-88
2024/02/21 03:31:07;;;;;;;;;;;;;;;;;;4950247;28;90192;-87
2024/02/21 03:33:32;;;;;;;;;;;;;;;;;;4950740;28;93182;-85
2024/02/21 03:35:58;;;;;;;;;;;;;;;;;;4950986;28;89301;-91
2024/02/21 03:38:23;;;;;;;;;;;;;;;;;;4950030;28;90238;-90
2024/02/21 03:40:48;;;;;;;;;;;;;;;;;;4948966;28;90776;-89
2024/02/21 03:43:13;;;;;;;;;;;;;;;;;;4950791;28;89797;-88
2024/02/21 03:45:39;;;;;;;;;;;;;;;;;;4950878;28;89474;-86
2024/02/21 03:48:04;;;;;;;;;;;;;;;;;;4954506;28;89782;-85
2024/02/21 03:50:30;;;;;;;;;;;;;;;;;;4950803;28;90378;-86
2024/02/21 03:52:55;;;;;;;;;;;;;;;;;;4940277;28;90899;-88
2024/02/21 03:55:21;;;;;;;;;;;;;;;;;;4942884;28;89720;-83
2024/02/21 03:57:47;;;;;;;;;;;;;;;;;;4941579;28;89053;-88
2024/02/21 04:00:12;;;;;;;;;;;;;;;;;;4939978;28;89623;-88
2024/02/21 04:02:37;;;;;;;;;;;;;;;;;;4945740;28;89592;-88
2024/02/21 04:05:03;;;;;;;;;;;;;;;;;;4943004;28;90395;-85
2024/02/21 04:07:28;;;;;;;;;;;;;;;;;;4939265;28;91386;-85
2024/02/21 04:09:53;;;;;;;;;;;;;;;;;;4948575;28;91896;-89
2024/02/21 04:12:18;;;;;;;;;;;;;;;;;;4933005;28;91612;-85
2024/02/21 04:14:44;;;;;;;;;;;;;;;;;;4947813;28;91963;-85
2024/02/21 04:17:09;;;;;;;;;;;;;;;;;;4938568;28;90148;-88
2024/02/21 04:19:34;;;;;;;;;;;;;;;;;;4940183;28;92180;-88
2024/02/21 04:22:00;;;;;;;;;;;;;;;;;;4945437;28;92018;-87
2024/02/21 04:24:25;;;;;;;;;;;;;;;;;;4947379;28;89171;-88
2024/02/21 04:26:50;;;;;;;;;;;;;;;;;;4939393;28;89550;-84
2024/02/21 04:29:16;;;;;;;;;;;;;;;;;;4946943;28;89488;-87
2024/02/21 04:31:41;;;;;;;;;;;;;;;;;;4938523;28;90571;-82
2024/02/21 04:34:07;;;;;;;;;;;;;;;;;;4939718;28;89192;-88
2024/02/21 04:36:32;;;;;;;;;;;;;;;;;;4940582;28;89367;-89
2024/02/21 04:38:58;;;;;;;;;;;;;;;;;;4934531;28;90035;-87
2024/02/21 04:41:23;;;;;;;;;;;;;;;;;;4939153;28;89300;-86
2024/02/21 04:43:49;;;;;;;;;;;;;;;;;;4933860;28;89411;-89
2024/02/21 04:46:15;;;;;;;;;;;;;;;;;;4944418;28;92865;-88
2024/02/21 04:48:40;;;;;;;;;;;;;;;;;;4944785;28;90901;-84
2024/02/21 04:51:05;;;;;;;;;;;;;;;;;;4934495;28;89111;-87
2024/02/21 04:53:31;;;;;;;;;;;;;;;;;;4936649;28;92302;-85
2024/02/21 04:55:56;;;;;;;;;;;;;;;;;;4937221;28;89474;-84
2024/02/21 04:58:21;;;;;;;;;;;;;;;;;;4938307;28;89406;-87
2024/02/21 05:00:47;;;;;;;;;;;;;;;;;;4938086;28;90024;-83
2024/02/21 05:03:12;;;;;;;;;;;;;;;;;;4938187;28;89476;-87
2024/02/21 05:05:37;;;;;;;;;;;;;;;;;;4936067;28;91559;-87
2024/02/21 05:08:02;;;;;;;;;;;;;;;;;;4933985;28;90383;-89
2024/02/21 05:10:28;;;;;;;;;;;;;;;;;;4938156;28;89456;-87
2024/02/21 05:12:53;;;;;;;;;;;;;;;;;;4939146;28;92855;-86
2024/02/21 05:15:19;;;;;;;;;;;;;;;;;;4932463;28;89041;-86
2024/02/21 05:17:44;;;;;;;;;;;;;;;;;;4945986;28;92454;-86
2024/02/21 05:20:10;;;;;;;;;;;;;;;;;;4939697;28;91803;-87
2024/02/21 05:22:35;;;;;;;;;;;;;;;;;;4956832;28;90392;-87
2024/02/21 05:25:00;;;;;;;;;;;;;;;;;;4939486;28;90431;-88
2024/02/21 05:27:26;;;;;;;;;;;;;;;;;;4942685;28;89824;-87
2024/02/21 05:29:51;;;;;;;;;;;;;;;;;;4939332;28;90485;-87
2024/02/21 05:32:17;;;;;;;;;;;;;;;;;;4941178;28;89508;-87
2024/02/21 05:34:42;;;;;;;;;;;;;;;;;;4945747;28;90148;-85
2024/02/21 05:37:07;;;;;;;;;;;;;;;;;;4939547;28;89315;-90
2024/02/21 05:39:33;;;;;;;;;;;;;;;;;;4939062;28;90797;-88
2024/02/21 05:41:58;;;;;;;;;;;;;;;;;;4939519;28;89077;-89
2024/02/21 05:44:23;;;;;;;;;;;;;;;;;;4943941;28;89878;-87
2024/02/21 05:46:48;;;;;;;;;;;;;;;;;;4942431;28;91970;-88
2024/02/21 05:49:14;;;;;;;;;;;;;;;;;;4936407;28;89834;-88
2024/02/21 05:51:40;;;;;;;;;;;;;;;;;;4944642;28;92598;-86
2024/02/21 05:54:05;;;;;;;;;;;;;;;;;;4933165;28;89234;-87
2024/02/21 05:56:30;;;;;;;;;;;;;;;;;;4942716;28;88989;-86
2024/02/21 05:58:56;;;;;;;;;;;;;;;;;;4947398;28;91371;-88
2024/02/21 06:01:21;;;;;;;;;;;;;;;;;;4936371;28;90082;-89
2024/02/21 06:03:47;;;;;;;;;;;;;;;;;;4950778;28;91823;-83
2024/02/21 06:06:12;;;;;;;;;;;;;;;;;;4935762;28;91791;-87
2024/02/21 06:08:39;;;;;;;;;;;;;;;;;;4941412;28;89509;-88
2024/02/21 06:11:04;;;;;;;;;;;;;;;;;;4938613;28;91080;-85
2024/02/21 06:13:30;;;;;;;;;;;;;;;;;;4937714;28;89211;-87
2024/02/21 06:15:55;;;;;;;;;;;;;;;;;;4938120;28;89243;-89
2024/02/21 06:18:20;;;;;;;;;;;;;;;;;;4943537;28;89543;-84
2024/02/21 06:20:46;;;;;;;;;;;;;;;;;;4938904;28;90311;-87
2024/02/21 06:23:11;;;;;;;;;;;;;;;;;;4936469;28;92345;-88
2024/02/21 06:25:37;;;;;;;;;;;;;;;;;;4936447;28;91150;-87
2024/02/21 06:28:02;;;;;;;;;;;;;;;;;;4944544;28;89083;-86
2024/02/21 06:30:27;;;;;;;;;;;;;;;;;;4940126;28;91235;-88
2024/02/21 06:32:55;;;;;;;;;;;;;;;;;;4936897;28;90239;-90
2024/02/21 06:35:21;;;;;;;;;;;;;;;;;;4938436;28;89137;-85
2024/02/21 06:37:50;;;;;;;;;;;;;;;;;;4941964;28;90085;-87
2024/02/21 06:40:15;;;;;;;;;;;;;;;;;;4944781;28;89872;-90
2024/02/21 06:42:41;;;;;;;;;;;;;;;;;;4937221;28;89825;-90
2024/02/21 06:45:06;;;;;;;;;;;;;;;;;;4937949;28;89468;-88
2024/02/21 06:47:31;;;;;;;;;;;;;;;;;;4943535;28;89451;-88
2024/02/21 06:49:56;;;;;;;;;;;;;;;;;;4938224;28;90168;-88
2024/02/21 06:52:23;;;;;;;;;;;;;;;;;;4936874;28;89295;-91
2024/02/21 06:54:48;;;;;;;;;;;;;;;;;;4936495;28;89745;-89
2024/02/21 06:57:15;;;;;;;;;;;;;;;;;;4939611;28;90101;-89
2024/02/21 06:59:41;;;;;;;;;;;;;;;;;;4958466;28;91945;-87
2024/02/21 07:02:06;;;;;;;;;;;;;;;;;;4940406;28;89048;-87
2024/02/21 07:04:32;;;;;;;;;;;;;;;;;;4940328;28;90098;-86
2024/02/21 07:06:57;;;;;;;;;;;;;;;;;;4947003;28;89525;-89
2024/02/21 07:09:23;;;;;;;;;;;;;;;;;;4937441;28;90272;-86
2024/02/21 07:11:48;;;;;;;;;;;;;;;;;;4954160;28;93319;-87
2024/02/21 07:14:18;;;;;;;;;;;;;;;;;;4939842;28;90030;-88
2024/02/21 07:16:43;;;;;;;;;;;;;;;;;;4939481;28;92694;-87
2024/02/21 07:19:08;;;;;;;;;;;;;;;;;;4936636;28;89479;-85
2024/02/21 07:21:33;;;;;;;;;;;;;;;;;;4941197;28;89631;-88
2024/02/21 07:23:59;;;;;;;;;;;;;;;;;;4945361;28;92074;-88
2024/02/21 07:26:24;;;;;;;;;;;;;;;;;;4937592;28;89103;-85
2024/02/21 07:28:49;;;;;;;;;;;;;;;;;;4937499;28;89486;-86
2024/02/21 07:31:15;;;;;;;;;;;;;;;;;;4941847;28;89308;-87
2024/02/21 07:33:40;;;;;;;;;;;;;;;;;;4937030;28;89737;-88
2024/02/21 07:36:08;;;;;;;;;;;;;;;;;;4943116;28;91793;-88
2024/02/21 07:38:33;;;;;;;;;;;;;;;;;;4944061;28;90222;-90
2024/02/21 07:40:58;;;;;;;;;;;;;;;;;;4941763;28;89484;-88
2024/02/21 07:43:23;;;;;;;;;;;;;;;;;;4939226;28;89951;-88
2024/02/21 07:45:49;;;;;;;;;;;;;;;;;;4935580;28;89105;-88
2024/02/21 07:48:14;;;;;;;;;;;;;;;;;;4936295;28;90019;-86
2024/02/21 07:50:39;;;;;;;;;;;;;;;;;;4946284;28;91820;-88
2024/02/21 07:53:05;;;;;;;;;;;;;;;;;;4937708;28;89208;-87
2024/02/21 07:55:30;;;;;;;;;;;;;;;;;;4939423;28;90187;-87
2024/02/21 07:57:55;;;;;;;;;;;;;;;;;;4945470;28;92490;-84
2024/02/21 08:00:21;;;;;;;;;;;;;;;;;;4940566;28;89460;-88
2024/02/21 08:02:46;;;;;;;;;;;;;;;;;;4940802;28;92317;-83
2024/02/21 08:05:12;;;;;;;;;;;;;;;;;;4950732;28;92096;-88
2024/02/21 08:07:37;;;;;;;;;;;;;;;;;;4958628;28;92226;-85
2024/02/21 08:10:03;;;;;;;;;;;;;;;;;;4940909;28;89778;-86
2024/02/21 08:12:28;;;;;;;;;;;;;;;;;;4943687;28;89325;-87
2024/02/21 08:14:53;;;;;;;;;;;;;;;;;;4945796;28;89578;-86
2024/02/21 08:17:18;;;;;;;;;;;;;;;;;;4942756;28;89581;-90
2024/02/21 08:19:44;;;;;;;;;;;;;;;;;;4956804;28;90077;-86
2024/02/21 08:22:09;;;;;;;;;;;;;;;;;;4942454;28;92306;-89
2024/02/21 08:24:34;;;;;;;;;;;;;;;;;;4948568;28;89590;-84
2024/02/21 08:27:00;;;;;;;;;;;;;;;;;;4945555;28;89139;-86
2024/02/21 08:29:25;;;;;;;;;;;;;;;;;;4938973;28;91846;-86
2024/02/21 08:31:50;;;;;;;;;;;;;;;;;;4940116;28;89473;-88
2024/02/21 08:34:15;;;;;;;;;;;;;;;;;;4937987;28;89944;-82
2024/02/21 08:36:41;;;;;;;;;;;;;;;;;;4943022;28;91399;-86
2024/02/21 08:39:07;;;;;;;;;;;;;;;;;;4940918;28;89522;-86
2024/02/21 08:41:32;;;;;;;;;;;;;;;;;;4957417;28;90881;-85
2024/02/21 08:43:57;;;;;;;;;;;;;;;;;;4938331;28;90173;-85
2024/02/21 08:46:24;;;;;;;;;;;;;;;;;;4941244;28;89381;-85
2024/02/21 08:48:49;;;;;;;;;;;;;;;;;;4943640;28;89155;-86
2024/02/21 08:51:15;;;;;;;;;;;;;;;;;;4946658;28;90232;-88
2024/02/21 08:53:40;;;;;;;;;;;;;;;;;;4946151;28;92745;-89
2024/02/21 08:56:07;;;;;;;;;;;;;;;;;;4960824;28;91910;-88
2024/02/21 08:58:32;;;;;;;;;;;;;;;;;;4950526;28;90389;-83
2024/02/21 09:00:57;;;;;;;;;;;;;;;;;;4950345;28;89432;-90
2024/02/21 09:03:23;;;;;;;;;;;;;;;;;;4946426;28;89692;-89
2024/02/21 09:05:48;;;;;;;;;;;;;;;;;;4949731;28;90254;-89
2024/02/21 09:08:13;;;;;;;;;;;;;;;;;;4947439;28;92144;-88
2024/02/21 09:10:41;;;;;;;;;;;;;;;;;;4942824;28;89381;-87
2024/02/21 09:13:08;;;;;;;;;;;;;;;;;;4944405;28;89596;-90
2024/02/21 09:15:33;;;;;;;;;;;;;;;;;;4946618;28;89086;-93
2024/02/21 09:17:58;;;;;;;;;;;;;;;;;;4945294;28;90545;-90
2024/02/21 09:20:23;;;;;;;;;;;;;;;;;;4941587;28;89780;-87
2024/02/21 09:22:49;;;;;;;;;;;;;;;;;;4953665;28;90663;-90
2024/02/21 09:25:14;;;;;;;;;;;;;;;;;;4943582;28;90001;-92
2024/02/21 09:27:40;;;;;;;;;;;;;;;;;;4940902;28;90836;-81
2024/02/21 09:30:05;;;;;;;;;;;;;;;;;;4951190;28;89348;-84
2024/02/21 09:32:32;;;;;;;;;;;;;;;;;;4938145;28;89567;-87
2024/02/21 09:34:58;;;;;;;;;;;;;;;;;;4933981;28;90920;-86
2024/02/21 09:37:23;;;;;;;;;;;;;;;;;;4927085;28;89612;-80
2024/02/21 09:39:50;;;;;;;;;;;;;;;;;;4915864;28;91401;-90
2024/02/21 09:42:19;;;;;;;;;;;;;;;;;;4942526;28;89104;-83
2024/02/21 09:44:45;;;;;;;;;;;;;;;;;;4940245;28;89428;-85
2024/02/21 09:47:17;;;;;;;;;;;;;;;;;;4951804;28;90157;-79
2024/02/21 09:49:42;;;;;;;;;;;;;;;;;;4943851;28;89439;-79
2024/02/21 09:52:07;;;;;;;;;;;;;;;;;;4939776;28;89345;-81
2024/02/21 09:54:34;;;;;;;;;;;;;;;;;;4939722;28;89280;-79
2024/02/21 09:57:03;;;;;;;;;;;;;;;;;;4943943;28;89391;-78
2024/02/21 09:59:29;;;;;;;;;;;;;;;;;;4946751;28;92312;-81
2024/02/21 10:01:55;;;;;;;;;;;;;;;;;;4943565;28;89112;-79
2024/02/21 10:04:20;;;;;;;;;;;;;;;;;;4940039;28;89381;-80
2024/02/21 10:06:46;;;;;;;;;;;;;;;;;;4945476;28;89651;-79
2024/02/21 10:09:22;;;;;;;;;;;;;;;;;;4948049;28;90054;-80
2024/02/21 10:11:47;;;;;;;;;;;;;;;;;;4942910;28;90307;-79
2024/02/21 10:14:14;;;;;;;;;;;;;;;;;;4947049;28;90060;-79
2024/02/21 10:16:39;;;;;;;;;;;;;;;;;;4942194;28;90437;-78
2024/02/21 10:19:04;;;;;;;;;;;;;;;;;;4946496;28;90266;-78
2024/02/21 10:21:30;;;;;;;;;;;;;;;;;;4939594;28;89741;-79
2024/02/21 10:23:55;;;;;;;;;;;;;;;;;;4946918;28;90513;-77
2024/02/21 10:26:20;;;;;;;;;;;;;;;;;;4942236;28;91303;-79
2024/02/21 10:28:47;;;;;;;;;;;;;;;;;;4947841;28;91035;-79
2024/02/21 10:31:21;;;;;;;;;;;;;;;;;;4944850;28;89532;-78
2024/02/21 10:33:53;;;;;;;;;;;;;;;;;;4945042;28;91998;-80
2024/02/21 10:36:19;;;;;;;;;;;;;;;;;;4943767;28;89468;-79
2024/02/21 10:38:44;;;;;;;;;;;;;;;;;;4939309;28;90862;-79
2024/02/21 10:41:13;;;;;;;;;;;;;;;;;;4941563;28;91856;-79
2024/02/21 10:43:42;;;;;;;;;;;;;;;;;;4941805;28;89600;-78
2024/02/21 10:46:12;;;;;;;;;;;;;;;;;;4944144;28;89496;-79
2024/02/21 10:48:47;;;;;;;;;;;;;;;;;;4943046;28;90834;-79
2024/02/21 10:51:19;;;;;;;;;;;;;;;;;;4941072;28;89503;-80
2024/02/21 10:53:50;;;;;;;;;;;;;;;;;;4942604;28;91539;-82
2024/02/21 10:56:22;;;;;;;;;;;;;;;;;;4951576;28;89407;-79
2024/02/21 10:58:48;;;;;;;;;;;;;;;;;;4946360;28;89247;-80
2024/02/21 11:01:15;;;;;;;;;;;;;;;;;;4937760;28;89548;-79
2024/02/21 11:03:41;;;;;;;;;;;;;;;;;;4947317;28;90143;-79
2024/02/21 11:06:08;;;;;;;;;;;;;;;;;;4948012;28;89312;-79
2024/02/21 11:08:34;;;;;;;;;;;;;;;;;;4937915;28;89614;-78
2024/02/21 11:11:00;;;;;;;;;;;;;;;;;;4938545;28;89415;-79
2024/02/21 11:13:51;;;;;;;;;;;;;;;;;;4938853;28;89500;-80
2024/02/21 11:16:23;;;;;;;;;;;;;;;;;;4937283;28;89859;-80
2024/02/21 11:18:49;;;;;;;;;;;;;;;;;;4959617;28;89177;-80
2024/02/21 11:21:14;;;;;;;;;;;;;;;;;;4945365;28;89316;-78
2024/02/21 11:23:39;;;;;;;;;;;;;;;;;;4937439;28;89421;-79
2024/02/21 11:26:07;;;;;;;;;;;;;;;;;;4944431;28;89526;-81
2024/02/21 11:28:32;;;;;;;;;;;;;;;;;;4932241;28;92652;-79
2024/02/21 11:31:27;;;;;;;;;;;;;;;;;;4939123;28;89316;-80
2024/02/21 11:33:53;;;;;;;;;;;;;;;;;;4932064;28;89503;-79
2024/02/21 11:36:28;;;;;;;;;;;;;;;;;;4938765;28;89564;-79
2024/02/21 11:38:53;;;;;;;;;;;;;;;;;;4944036;28;89149;-79
2024/02/21 11:41:20;;;;;;;;;;;;;;;;;;4945885;28;90762;-76
2024/02/21 11:43:45;;;;;;;;;;;;;;;;;;4937422;28;90272;-80
2024/02/21 11:46:11;;;;;;;;;;;;;;;;;;4939984;28;92169;-84
2024/02/21 11:48:36;;;;;;;;;;;;;;;;;;4938749;28;89398;-83
2024/02/21 11:51:03;;;;;;;;;;;;;;;;;;4944488;28;90261;-79
2024/02/21 11:53:30;;;;;;;;;;;;;;;;;;4935949;28;89660;-82
2024/02/21 11:55:56;;;;;;;;;;;;;;;;;;4933296;28;89199;-79
2024/02/21 11:58:22;;;;;;;;;;;;;;;;;;4939829;28;89302;-79
2024/02/21 12:00:47;;;;;;;;;;;;;;;;;;4938531;28;89870;-82
2024/02/21 12:03:12;;;;;;;;;;;;;;;;;;4934502;28;90872;-82
2024/02/21 12:05:38;;;;;;;;;;;;;;;;;;4937391;28;89580;-84
2024/02/21 12:08:04;;;;;;;;;;;;;;;;;;4938248;28;92016;-82
2024/02/21 12:10:29;;;;;;;;;;;;;;;;;;4937391;28;89505;-79
2024/02/21 12:13:05;;;;;;;;;;;;;;;;;;4937890;28;90625;-81
2024/02/21 12:15:31;;;;;;;;;;;;;;;;;;4932649;28;92373;-85
2024/02/21 12:17:57;;;;;;;;;;;;;;;;;;4945140;28;89537;-80
2024/02/21 12:20:22;;;;;;;;;;;;;;;;;;4940065;28;89397;-81
2024/02/21 12:22:49;;;;;;;;;;;;;;;;;;4929084;28;91696;-85
2024/02/21 12:25:26;;;;;;;;;;;;;;;;;;4939285;28;89614;-81
2024/02/21 12:27:51;;;;;;;;;;;;;;;;;;4944196;28;89584;-82
2024/02/21 12:30:17;;;;;;;;;;;;;;;;;;4938944;28;90132;-81
2024/02/21 12:32:42;;;;;;;;;;;;;;;;;;4944348;28;91483;-82
2024/02/21 12:35:08;;;;;;;;;;;;;;;;;;4938767;28;91329;-82
2024/02/21 12:37:33;;;;;;;;;;;;;;;;;;4942873;28;90109;-83
2024/02/21 12:39:58;;;;;;;;;;;;;;;;;;4939221;28;89499;-82
2024/02/21 12:42:25;;;;;;;;;;;;;;;;;;4945695;28;89967;-83
2024/02/21 12:44:51;;;;;;;;;;;;;;;;;;4935417;28;89339;-81
2024/02/21 12:47:18;;;;;;;;;;;;;;;;;;4939154;28;92291;-83
2024/02/21 12:49:43;;;;;;;;;;;;;;;;;;4941208;28;89505;-82
2024/02/21 12:52:09;;;;;;;;;;;;;;;;;;4938922;28;89326;-81
2024/02/21 12:54:34;;;;;;;;;;;;;;;;;;4939378;28;89495;-83
2024/02/21 12:57:02;;;;;;;;;;;;;;;;;;4942393;28;89339;-81
2024/02/21 12:59:28;;;;;;;;;;;;;;;;;;4934377;28;89576;-82
2024/02/21 13:01:53;;;;;;;;;;;;;;;;;;4935924;28;89310;-81
2024/02/21 13:04:19;;;;;;;;;;;;;;;;;;4937995;28;89277;-83
2024/02/21 13:06:44;;;;;;;;;;;;;;;;;;4948365;28;92459;-84
2024/02/21 13:09:11;;;;;;;;;;;;;;;;;;4941809;28;89043;-81
2024/02/21 13:11:37;;;;;;;;;;;;;;;;;;4945378;28;92780;-80
2024/02/21 13:14:02;;;;;;;;;;;;;;;;;;4935022;28;89561;-84
2024/02/21 13:16:28;;;;;;;;;;;;;;;;;;4951119;28;90501;-82
2024/02/21 13:18:53;;;;;;;;;;;;;;;;;;4941658;28;89497;-82
2024/02/21 13:21:18;;;;;;;;;;;;;;;;;;4928803;28;89285;-82
2024/02/21 13:23:44;;;;;;;;;;;;;;;;;;4948542;28;90758;-85
2024/02/21 13:26:09;;;;;;;;;;;;;;;;;;4938341;28;89441;-82
2024/02/21 13:28:35;;;;;;;;;;;;;;;;;;4944112;28;89383;-84
2024/02/21 13:31:00;;;;;;;;;;;;;;;;;;4940384;28;92306;-81
2024/02/21 13:33:25;;;;;;;;;;;;;;;;;;4936834;28;89274;-80
2024/02/21 13:35:50;;;;;;;;;;;;;;;;;;4937605;28;89449;-84
2024/02/21 13:38:16;;;;;;;;;;;;;;;;;;4936654;28;89500;-81
2024/02/21 13:40:42;;;;;;;;;;;;;;;;;;4938690;28;92206;-81
2024/02/21 13:43:07;;;;;;;;;;;;;;;;;;4945134;28;89148;-85
2024/02/21 13:45:33;;;;;;;;;;;;;;;;;;4940154;28;89784;-82
2024/02/21 13:47:59;;;;;;;;;;;;;;;;;;4941583;28;89404;-82
2024/02/21 13:50:29;;;;;;;;;;;;;;;;;;4941505;28;89045;-83
2024/02/21 13:52:54;;;;;;;;;;;;;;;;;;4938924;28;89349;-82
2024/02/21 13:55:22;;;;;;;;;;;;;;;;;;4937890;28;89160;-84
2024/02/21 13:57:47;;;;;;;;;;;;;;;;;;4942664;28;89485;-81
2024/02/21 14:00:12;;;;;;;;;;;;;;;;;;4940223;28;89437;-81
2024/02/21 14:02:38;;;;;;;;;;;;;;;;;;4942713;28;90867;-84
2024/02/21 14:05:05;;;;;;;;;;;;;;;;;;4947651;28;89695;-82
2024/02/21 14:07:31;;;;;;;;;;;;;;;;;;4947712;28;91750;-85
2024/02/21 14:09:56;;;;;;;;;;;;;;;;;;4939328;28;90059;-82
2024/02/21 14:12:21;;;;;;;;;;;;;;;;;;4944247;28;89464;-84
2024/02/21 14:14:47;;;;;;;;;;;;;;;;;;4943580;28;89500;-84
2024/02/21 14:17:12;;;;;;;;;;;;;;;;;;4936231;28;90241;-81
2024/02/21 14:19:38;;;;;;;;;;;;;;;;;;4937455;28;89648;-85
2024/02/21 14:22:03;;;;;;;;;;;;;;;;;;4947753;28;90963;-82
2024/02/21 14:24:28;;;;;;;;;;;;;;;;;;4939656;28;90447;-81
2024/02/21 14:26:54;;;;;;;;;;;;;;;;;;4936918;28;89769;-83
2024/02/21 14:29:20;;;;;;;;;;;;;;;;;;4945744;28;90442;-81
2024/02/21 14:31:46;;;;;;;;;;;;;;;;;;4941700;28;89540;-81
2024/02/21 14:34:11;;;;;;;;;;;;;;;;;;4938510;28;92105;-83
2024/02/21 14:36:36;;;;;;;;;;;;;;;;;;4945308;28;89384;-81
2024/02/21 14:39:02;;;;;;;;;;;;;;;;;;4938776;28;89603;-82
2024/02/21 14:41:28;;;;;;;;;;;;;;;;;;4941933;28;89544;-81
2024/02/21 14:43:55;;;;;;;;;;;;;;;;;;4938429;28;89318;-82
2024/02/21 14:46:20;;;;;;;;;;;;;;;;;;4940393;28;89616;-85
2024/02/21 14:48:46;;;;;;;;;;;;;;;;;;4943437;28;89500;-82
2024/02/21 14:51:11;;;;;;;;;;;;;;;;;;4939850;28;92528;-85
2024/02/21 14:53:36;;;;;;;;;;;;;;;;;;4939404;28;89289;-81
2024/02/21 14:56:02;;;;;;;;;;;;;;;;;;4950179;28;89480;-82
2024/02/21 14:58:27;;;;;;;;;;;;;;;;;;4938577;28;89475;-86
2024/02/21 15:00:54;;;;;;;;;;;;;;;;;;4942757;28;89250;-81
2024/02/21 15:03:20;;;;;;;;;;;;;;;;;;4941274;28;89826;-83
2024/02/21 15:05:46;;;;;;;;;;;;;;;;;;4938238;28;89855;-84
2024/02/21 15:08:11;;;;;;;;;;;;;;;;;;4947403;28;89868;-81
2024/02/21 15:10:37;;;;;;;;;;;;;;;;;;4941861;28;89538;-81
2024/02/21 15:13:02;;;;;;;;;;;;;;;;;;4939651;28;89378;-85
2024/02/21 15:15:28;;;;;;;;;;;;;;;;;;4947092;28;89289;-83
2024/02/21 15:17:53;;;;;;;;;;;;;;;;;;4937718;28;89355;-81
2024/02/21 15:20:18;;;;;;;;;;;;;;;;;;4942388;28;89520;-82
2024/02/21 15:22:44;;;;;;;;;;;;;;;;;;4944386;28;91316;-83
2024/02/21 15:25:14;;;;;;;;;;;;;;;;;;4944115;28;89427;-83
2024/02/21 15:27:40;;;;;;;;;;;;;;;;;;4939713;28;89727;-82
2024/02/21 15:30:05;;;;;;;;;;;;;;;;;;4934891;28;89529;-80
2024/02/21 15:32:31;;;;;;;;;;;;;;;;;;4936486;28;89381;-79
2024/02/21 15:34:56;;;;;;;;;;;;;;;;;;4938296;28;89329;-83
2024/02/21 15:37:21;;;;;;;;;;;;;;;;;;4942710;28;89580;-83
2024/02/21 15:39:47;;;;;;;;;;;;;;;;;;4938463;28;90122;-81
2024/02/21 15:42:12;;;;;;;;;;;;;;;;;;4942524;28;91309;-81
2024/02/21 15:44:38;;;;;;;;;;;;;;;;;;4941596;28;89699;-82
2024/02/21 15:47:04;;;;;;;;;;;;;;;;;;4939374;28;90493;-81
2024/02/21 15:49:30;;;;;;;;;;;;;;;;;;4934475;28;89409;-84
2024/02/21 15:51:55;;;;;;;;;;;;;;;;;;4939194;28;89376;-86
2024/02/21 15:54:21;;;;;;;;;;;;;;;;;;4943063;28;89387;-83
2024/02/21 15:56:46;;;;;;;;;;;;;;;;;;4931057;28;92761;-85
2024/02/21 15:59:12;;;;;;;;;;;;;;;;;;4947427;28;91894;-82
2024/02/21 16:01:38;;;;;;;;;;;;;;;;;;4937469;28;92458;-79
2024/02/21 16:04:05;;;;;;;;;;;;;;;;;;4941300;28;89345;-81
2024/02/21 16:06:30;;;;;;;;;;;;;;;;;;4949554;28;90281;-79
2024/02/21 16:08:56;;;;;;;;;;;;;;;;;;4934207;28;90053;-81
2024/02/21 16:11:21;;;;;;;;;;;;;;;;;;4943156;28;89966;-79
2024/02/21 16:13:47;;;;;;;;;;;;;;;;;;4950818;28;90642;-81
2024/02/21 16:16:13;;;;;;;;;;;;;;;;;;4935376;28;92394;-78
2024/02/21 16:18:38;;;;;;;;;;;;;;;;;;4943743;28;90056;-82
2024/02/21 16:21:05;;;;;;;;;;;;;;;;;;4943776;28;89506;-81
2024/02/21 16:23:30;;;;;;;;;;;;;;;;;;4941541;28;89207;-79
2024/02/21 16:25:55;;;;;;;;;;;;;;;;;;4945897;28;89429;-80
2024/02/21 16:28:20;;;;;;;;;;;;;;;;;;4945187;28;89550;-80
2024/02/21 16:30:46;;;;;;;;;;;;;;;;;;4941402;28;89704;-80
2024/02/21 16:33:11;;;;;;;;;;;;;;;;;;4937596;28;89467;-81
2024/02/21 16:35:39;;;;;;;;;;;;;;;;;;4933729;28;89482;-79
2024/02/21 16:38:05;;;;;;;;;;;;;;;;;;4945257;28;89804;-80